Historique des mesures à Cassis (13260), France
Quotidien Résumé Mai 20, 2017 Unités:  US    Métrique   Métrique/US
« Précédent (Jour)
Suivant (Jour) »
Quotidien Hebdomadaire Mensuel Annuel Période au choix
  Maximum: Minimum: Moyenne:
Température: 32 °F 55.9 °F 63 °F
Point de rosée: 32 °F 39 °F 43.2 °F
Humidité: Humidity % 36 % 46 %
Vitesse du vent: WindSpeedKMH mph 6.4 mph 15.5 mph
Rafales: WindSpeedGustKMH mph - -
Vent:- - SSW
Pression: 0 in 30 in -
Précipitations: 0 in    
Historical Graphs
 
 
Mesures pour : Mai 20, 2017
Heure Temperature Point de rosée Pression Vent Vitesse du vent Rafales Humidité Pluie (par heure) Conditions
32 °F 32 °F 0 in Calm     Humidity % 0 in SoftwareType W/m2
00:10 61.7 °F 45.3 °F 30 in North 14.0 mph 25.9 mph 55 % 0 in open2300-1.11 W/m2
01:10 60.6 °F 44.8 °F 30 in WNW 9.0 mph 23.3 mph 56 % 0 in open2300-1.11 W/m2
02:10 59.4 °F 44.4 °F 30 in NW 16.9 mph 16.9 mph 58 % 0 in open2300-1.11 W/m2
03:10 58.5 °F 43.7 °F 30 in NNE 9.3 mph 18.3 mph 58 % 0 in open2300-1.11 W/m2
04:10 57.4 °F 44.1 °F 30 in North 6.4 mph 11.9 mph 61 % 0 in open2300-1.11 W/m2
05:10 56.3 °F 43.3 °F 30 in NW 16.9 mph 20.9 mph 62 % 0 in open2300-1.11 W/m2
06:10 55.9 °F 43.5 °F 30 in NW 17.2 mph 20.6 mph 63 % 0 in open2300-1.11 W/m2
07:10 55.9 °F 43.5 °F 30 in NNW 13.4 mph 15.4 mph 63 % 0 in open2300-1.11 W/m2
08:10 60.6 °F 44.2 °F 30 in North 8.2 mph 9.0 mph 55 % 0 in open2300-1.11 W/m2
09:10 58.6 °F 42.4 °F 30 in NNW 20.1 mph 20.1 mph 55 % 0 in open2300-1.11 W/m2
10:10 60.6 °F 43.9 °F 30 in North 18.3 mph 33.8 mph 54 % 0 in open2300-1.11 W/m2
11:10 65.1 °F 46.6 °F 30 in West 7.6 mph 11.9 mph 51 % 0 in open2300-1.11 W/m2
12:10 66.7 °F 44.6 °F 30 in NW 7.2 mph 19.1 mph 45 % 0 in open2300-1.11 W/m2
13:10 68.4 °F 45 °F 30 in NW 27.7 mph 27.7 mph 43 % 0 in open2300-1.11 W/m2
14:10 69.1 °F 43.9 °F 30 in North 10.8 mph 16.9 mph 40 % 0 in open2300-1.11 W/m2
15:10 70.3 °F 44.2 °F 30 in NW 18.7 mph 34.1 mph 39 % 0 in open2300-1.11 W/m2
16:10 70.9 °F 43.9 °F 30 in NNE 17.2 mph 31.4 mph 38 % 0 in open2300-1.11 W/m2
17:10 71.8 °F 44.1 °F 30 in West 38.5 mph 38.5 mph 37 % 0 in open2300-1.11 W/m2
18:10 71.8 °F 44.1 °F 30 in NNW 18.3 mph 25.9 mph 37 % 0 in open2300-1.11 W/m2
19:10 71.2 °F 44.2 °F 30 in NW 21.9 mph 21.9 mph 38 % 0 in open2300-1.11 W/m2
20:10 70 °F 41.5 °F 30 in North 25.3 mph 25.3 mph 36 % 0 in open2300-1.11 W/m2
21:10 68.2 °F 40.8 °F 30 in NNW 8.7 mph 10.1 mph 37 % 0 in open2300-1.11 W/m2
22:10 66.9 °F 40.5 °F 30 in NNW 18.3 mph 18.3 mph 38 % 0 in open2300-1.11 W/m2
23:11 65.5 °F 39 °F 30 in North 16.9 mph 23.3 mph 38 % 0 in open2300-1.11 W/m2
Observations météo à CASSIS
WU-History script by Weather Underground - 1 mb